1H6 weather

Harvey Young Airport
Tulsa, Oklahoma, United States

Public forecast

Using degrees Fahrenheit for public forecast. Weather courtesy of forecast.io.

METAR (pilot weather report)

Closest report is Tulsa International Airport, 4.7 nm (8.7 km) NW. Retrieved 2019/04/23 15:53 UTC (19 minutes ago):

KTUL 231553Z 01008KT 10SM FEW008 BKN015 OVC030 16/13 A3003 RMK AO2 SLP164 T01560128

TAF (pilot weather forecast)

Closest forecast is Tulsa International Airport, 4.7 nm (8.7 km) NW. Retrieved 2019/04/23 12:42 UTC (4 hours ago):

TAF KTUL 231140Z 2312/2412 36007KT P6SM VCSH BKN030 TEMPO 2314/2318 3SM TSRA BR OVC015CB FM231800 36010KT P6SM VCSH OVC015 FM240100 36006KT P6SM OVC015